createdAt,value
2022-12-25T00:00:46.684Z,7.41
2022-12-25T00:03:49.560Z,7.36
2022-12-25T00:06:52.225Z,7.34
2022-12-25T00:09:54.857Z,7.29
2022-12-25T00:12:58.774Z,7.21
2022-12-25T00:16:01.435Z,7.09
2022-12-25T00:19:04.047Z,7.04
2022-12-25T00:22:06.686Z,6.97
2022-12-25T00:25:09.659Z,6.87
2022-12-25T00:28:13.650Z,6.86
2022-12-25T00:31:18.299Z,6.81
2022-12-25T00:34:21.156Z,6.81
2022-12-25T00:37:23.752Z,6.75
2022-12-25T00:40:26.405Z,6.73
2022-12-25T00:43:30.363Z,6.75
2022-12-25T00:46:33.023Z,6.71
2022-12-25T00:49:35.662Z,6.73
2022-12-25T00:52:38.295Z,6.74
2022-12-25T00:55:40.847Z,6.65
2022-12-25T00:58:44.784Z,6.64
2022-12-25T01:01:47.596Z,6.55
2022-12-25T01:04:51.238Z,6.45
2022-12-25T01:07:53.847Z,6.43
2022-12-25T01:10:57.115Z,6.41
2022-12-25T01:14:01.058Z,6.35
2022-12-25T01:17:03.633Z,6.22
2022-12-25T01:20:07.391Z,6.23
2022-12-25T01:23:10.009Z,6.26
2022-12-25T01:26:14.231Z,6.17
2022-12-25T01:29:18.148Z,6.19
2022-12-25T01:32:20.751Z,6.14
2022-12-25T01:35:23.348Z,6.17
2022-12-25T01:38:26.229Z,6.19
2022-12-25T01:41:28.836Z,6.16
2022-12-25T01:45:23.877Z,6.15
2022-12-25T01:48:31.661Z,6.19
2022-12-25T01:51:40.023Z,6.18
2022-12-25T01:54:46.725Z,6.31
2022-12-25T01:57:49.851Z,6.15
2022-12-25T02:00:53.168Z,6.12
2022-12-25T02:04:02.473Z,6.15
2022-12-25T02:07:06.482Z,6.28
2022-12-25T02:10:10.377Z,6.38
2022-12-25T02:13:14.503Z,6.23
2022-12-25T02:16:21.019Z,6.30
2022-12-25T02:19:39.062Z,6.29
2022-12-25T02:22:51.310Z,6.32
2022-12-25T02:26:05.130Z,6.32
2022-12-25T02:29:15.699Z,6.33
2022-12-25T02:32:25.554Z,6.40
2022-12-25T02:35:31.688Z,6.38
2022-12-25T02:38:38.559Z,6.29
2022-12-25T02:41:45.645Z,6.35
2022-12-25T02:45:09.864Z,6.47
2022-12-25T02:48:32.260Z,6.31
2022-12-25T02:51:56.633Z,6.33
2022-12-25T02:55:21.698Z,6.39
2022-12-25T02:58:44.118Z,6.43
2022-12-25T03:02:05.832Z,6.40
2022-12-25T03:05:32.183Z,6.33
2022-12-25T03:08:40.240Z,6.32
2022-12-25T03:11:42.305Z,6.30
2022-12-25T03:15:02.547Z,6.28
2022-12-25T03:18:10.082Z,6.36
2022-12-25T03:21:30.085Z,6.25
2022-12-25T03:24:50.209Z,6.21
2022-12-25T03:27:55.725Z,6.23
2022-12-25T03:31:12.877Z,6.18
2022-12-25T03:34:44.730Z,6.02
2022-12-25T03:38:14.514Z,5.99
2022-12-25T03:41:40.276Z,6.03
2022-12-25T03:45:10.182Z,6.11
2022-12-25T03:48:31.422Z,6.08
2022-12-25T03:51:57.487Z,6.12
2022-12-25T03:55:22.138Z,6.10
2022-12-25T03:58:44.793Z,6.17
2022-12-25T04:02:05.118Z,6.05
2022-12-25T04:05:31.531Z,6.16
2022-12-25T04:08:53.072Z,6.17
2022-12-25T04:12:21.780Z,6.11
2022-12-25T04:15:42.056Z,6.20
2022-12-25T04:19:02.373Z,6.17
2022-12-25T04:22:22.620Z,6.23
2022-12-25T04:25:44.338Z,6.29
2022-12-25T04:29:04.688Z,6.24
2022-12-25T04:32:25.102Z,6.23
2022-12-25T04:35:47.638Z,6.32
2022-12-25T04:38:50.246Z,6.33
2022-12-25T04:41:54.162Z,6.38
2022-12-25T04:44:56.758Z,6.41
2022-12-25T04:48:00.414Z,6.43
2022-12-25T04:51:15.533Z,6.44
2022-12-25T04:54:18.259Z,6.41
2022-12-25T04:57:22.193Z,6.53
2022-12-25T05:00:24.801Z,6.36
2022-12-25T05:03:27.487Z,6.49
2022-12-25T05:06:30.119Z,6.61
2022-12-25T05:09:32.782Z,6.70
2022-12-25T05:12:36.728Z,6.71
2022-12-25T05:15:40.572Z,6.62
2022-12-25T05:18:43.206Z,6.62
2022-12-25T05:21:45.803Z,6.61
2022-12-25T05:24:48.391Z,6.58
2022-12-25T05:27:54.087Z,6.52
2022-12-25T05:30:57.502Z,6.61
2022-12-25T05:34:00.150Z,6.59
2022-12-25T05:37:02.765Z,6.48
2022-12-25T05:40:06.494Z,6.63
2022-12-25T05:43:10.473Z,6.71
2022-12-25T05:46:14.854Z,6.73
2022-12-25T05:49:17.515Z,6.74
2022-12-25T05:52:20.136Z,6.80
2022-12-25T05:55:22.703Z,6.83
2022-12-25T05:58:26.627Z,6.83
2022-12-25T06:01:30.035Z,6.86
2022-12-25T06:04:32.749Z,6.89
2022-12-25T06:07:35.385Z,6.92
2022-12-25T06:10:38.226Z,6.85
2022-12-25T06:13:42.348Z,6.90
2022-12-25T06:16:45.040Z,6.98
2022-12-25T06:19:47.701Z,6.92
2022-12-25T06:22:50.288Z,6.88
2022-12-25T06:25:53.158Z,6.95
2022-12-25T06:28:57.119Z,6.99
2022-12-25T06:31:59.764Z,6.91
2022-12-25T06:35:02.379Z,6.78
2022-12-25T06:38:04.961Z,6.85
2022-12-25T06:41:09.027Z,6.89
2022-12-25T06:44:12.967Z,6.90
2022-12-25T06:47:15.566Z,6.83
2022-12-25T06:50:18.285Z,6.78
2022-12-25T06:53:20.874Z,6.77
2022-12-25T06:56:25.973Z,6.83
2022-12-25T06:59:29.994Z,6.87
2022-12-25T07:02:34.486Z,6.87
2022-12-25T07:05:37.237Z,6.76
2022-12-25T07:08:40.049Z,6.97
2022-12-25T07:11:42.671Z,6.95
2022-12-25T07:14:48.759Z,6.88
2022-12-25T07:17:51.364Z,6.82
2022-12-25T07:20:55.607Z,6.86
2022-12-25T07:23:58.191Z,7.02
2022-12-25T07:27:00.932Z,7.03
2022-12-25T07:30:05.647Z,7.11
2022-12-25T07:33:08.229Z,7.16
2022-12-25T07:36:13.004Z,7.15
2022-12-25T07:39:16.181Z,7.16
2022-12-25T07:42:24.808Z,7.18
2022-12-25T07:45:29.335Z,7.21
2022-12-25T07:48:32.593Z,7.19
2022-12-25T07:51:35.303Z,7.18
2022-12-25T07:54:37.845Z,7.22
2022-12-25T07:57:40.976Z,7.26
2022-12-25T08:00:44.914Z,7.26
2022-12-25T08:03:50.735Z,7.36
2022-12-25T08:06:53.404Z,7.36
2022-12-25T08:09:55.998Z,7.35
2022-12-25T08:12:58.610Z,7.38
2022-12-25T08:16:04.397Z,7.35
2022-12-25T08:19:06.962Z,7.46
2022-12-25T08:22:09.559Z,7.36
2022-12-25T08:25:12.159Z,7.42
2022-12-25T08:28:14.801Z,7.41
2022-12-25T08:31:21.093Z,7.46
2022-12-25T08:34:23.843Z,7.30
2022-12-25T08:37:26.630Z,7.49
2022-12-25T08:40:29.433Z,7.55
2022-12-25T08:43:32.099Z,7.55
2022-12-25T08:46:36.692Z,7.59
2022-12-25T08:49:39.397Z,7.60
2022-12-25T08:52:42.222Z,7.58
2022-12-25T08:55:45.257Z,7.59
2022-12-25T08:58:47.986Z,7.58
2022-12-25T09:01:52.062Z,7.71
2022-12-25T09:04:54.722Z,7.75
2022-12-25T09:07:57.410Z,7.72
2022-12-25T09:11:03.336Z,7.64
2022-12-25T09:14:06.056Z,7.78
2022-12-25T09:17:10.348Z,7.75
2022-12-25T09:20:13.069Z,7.72
2022-12-25T09:23:15.682Z,7.81
2022-12-25T09:26:20.120Z,7.85
2022-12-25T09:29:22.763Z,7.68
2022-12-25T09:32:26.701Z,7.78
2022-12-25T09:35:29.316Z,7.81
2022-12-25T09:38:31.949Z,7.84
2022-12-25T09:41:38.400Z,7.93
2022-12-25T09:44:45.485Z,7.87
2022-12-25T09:47:50.387Z,7.85
2022-12-25T09:50:58.662Z,7.88
2022-12-25T09:54:06.013Z,7.89
2022-12-25T09:57:12.161Z,7.93
2022-12-25T10:00:16.965Z,7.95
2022-12-25T10:03:31.513Z,7.99
2022-12-25T10:06:42.627Z,8.06
2022-12-25T10:09:59.809Z,8.02
2022-12-25T10:13:12.459Z,8.02
2022-12-25T10:16:21.980Z,7.93
2022-12-25T10:19:41.591Z,8.06
2022-12-25T10:22:48.612Z,8.08
2022-12-25T10:25:53.356Z,8.14
2022-12-25T10:29:01.028Z,8.19
2022-12-25T10:32:03.608Z,8.22
2022-12-25T10:35:12.312Z,7.95
2022-12-25T10:38:17.902Z,8.07
2022-12-25T10:41:34.196Z,8.15
2022-12-25T10:44:36.959Z,8.23
2022-12-25T10:47:42.480Z,8.16
2022-12-25T10:50:46.831Z,8.25
2022-12-25T10:53:49.433Z,8.14
2022-12-25T10:56:57.861Z,8.16
2022-12-25T11:00:01.667Z,8.28
2022-12-25T11:03:04.546Z,8.34
2022-12-25T11:06:23.267Z,8.22
2022-12-25T11:09:26.012Z,8.32
2022-12-25T11:12:32.402Z,8.36
2022-12-25T11:15:38.941Z,8.38
2022-12-25T11:18:47.681Z,8.42
2022-12-25T11:21:53.415Z,8.41
2022-12-25T11:24:56.419Z,8.17
2022-12-25T11:28:00.837Z,8.29
2022-12-25T11:31:08.744Z,8.37
2022-12-25T11:34:19.820Z,8.31
2022-12-25T11:37:31.444Z,8.27
2022-12-25T11:40:41.571Z,8.09
2022-12-25T11:43:50.157Z,8.23
2022-12-25T11:46:55.977Z,8.29
2022-12-25T11:50:03.791Z,8.49
2022-12-25T11:53:15.768Z,8.53
2022-12-25T11:56:21.484Z,8.47
2022-12-25T11:59:28.569Z,8.51
2022-12-25T12:02:36.153Z,8.59
2022-12-25T12:05:45.147Z,8.53
2022-12-25T12:08:53.772Z,8.63
2022-12-25T12:12:02.586Z,8.65
2022-12-25T12:15:16.096Z,8.66
2022-12-25T12:18:22.249Z,8.52
2022-12-25T12:21:27.109Z,8.65
2022-12-25T12:24:37.022Z,8.64
2022-12-25T12:27:41.795Z,8.65
2022-12-25T12:30:44.374Z,8.67
2022-12-25T12:33:53.383Z,8.63
2022-12-25T12:37:02.629Z,8.62
2022-12-25T12:40:22.227Z,8.49
2022-12-25T12:43:32.895Z,8.51
2022-12-25T12:46:38.126Z,8.64
2022-12-25T12:49:40.743Z,8.69
2022-12-25T12:52:43.395Z,8.69
2022-12-25T12:55:47.343Z,8.64
2022-12-25T12:58:51.281Z,8.74
2022-12-25T13:02:07.339Z,8.51
2022-12-25T13:05:19.727Z,8.59
2022-12-25T13:08:35.405Z,8.74
2022-12-25T13:11:42.984Z,8.55
2022-12-25T13:14:47.329Z,8.63
2022-12-25T13:17:50.177Z,8.66
2022-12-25T13:20:56.124Z,8.75
2022-12-25T13:24:00.654Z,8.80
2022-12-25T13:27:22.852Z,8.75
2022-12-25T13:30:26.560Z,8.81
2022-12-25T13:33:29.386Z,8.79
2022-12-25T13:36:37.746Z,8.82
2022-12-25T13:39:49.640Z,8.64
2022-12-25T13:42:58.238Z,8.67
2022-12-25T13:46:00.822Z,8.77
2022-12-25T13:49:03.454Z,8.82
2022-12-25T13:52:13.110Z,8.78
2022-12-25T13:55:18.631Z,8.80
2022-12-25T13:58:28.200Z,8.79
2022-12-25T14:01:30.875Z,8.85
2022-12-25T14:04:33.528Z,8.77
2022-12-25T14:07:36.188Z,8.71
2022-12-25T14:10:40.218Z,8.72
2022-12-25T14:13:46.121Z,8.84
2022-12-25T14:16:50.341Z,8.81
2022-12-25T14:20:05.987Z,8.77
2022-12-25T14:23:16.714Z,8.70
2022-12-25T14:26:21.215Z,8.65
2022-12-25T14:29:28.347Z,8.67
2022-12-25T14:32:39.342Z,8.79
2022-12-25T14:35:42.605Z,8.81
2022-12-25T14:38:45.897Z,8.87
2022-12-25T14:41:54.457Z,8.85
2022-12-25T14:45:01.298Z,8.73
2022-12-25T14:48:22.918Z,8.72
2022-12-25T14:51:27.791Z,8.82
2022-12-25T14:54:30.448Z,8.81
2022-12-25T14:57:35.288Z,8.73
2022-12-25T15:00:40.525Z,8.75
2022-12-25T15:03:43.289Z,8.82
2022-12-25T15:06:55.042Z,8.82
2022-12-25T15:10:27.307Z,8.80
2022-12-25T15:13:20.501Z,8.57
2022-12-25T15:16:26.862Z,8.78
2022-12-25T15:19:37.356Z,8.79
2022-12-25T15:23:09.949Z,8.84
2022-12-25T15:26:03.631Z,8.81
2022-12-25T15:29:07.400Z,8.81
2022-12-25T15:32:17.655Z,8.84
2022-12-25T15:35:21.847Z,8.81
2022-12-25T15:38:24.490Z,8.78
2022-12-25T15:41:47.521Z,8.80
2022-12-25T15:44:50.161Z,8.77
2022-12-25T15:47:54.335Z,8.80
2022-12-25T15:50:56.951Z,8.79
2022-12-25T15:53:59.931Z,8.73
2022-12-25T15:57:05.120Z,8.70
2022-12-25T16:00:09.738Z,8.67
2022-12-25T16:03:13.826Z,8.70
2022-12-25T16:06:18.855Z,8.68
2022-12-25T16:09:22.128Z,8.65
2022-12-25T16:12:24.753Z,8.61
2022-12-25T16:15:27.319Z,8.60
2022-12-25T16:18:31.525Z,8.59
2022-12-25T16:21:40.167Z,8.54
2022-12-25T16:24:42.760Z,8.53
2022-12-25T16:27:45.634Z,8.57
2022-12-25T16:30:48.403Z,8.54
2022-12-25T16:33:53.444Z,8.52
2022-12-25T16:36:56.955Z,8.44
2022-12-25T16:39:59.638Z,8.46
2022-12-25T16:43:02.292Z,8.42
2022-12-25T16:46:10.127Z,8.35
2022-12-25T16:49:14.102Z,8.22
2022-12-25T16:52:16.797Z,8.31
2022-12-25T16:55:20.298Z,8.26
2022-12-25T16:58:25.232Z,8.24
2022-12-25T17:01:27.878Z,8.12
2022-12-25T17:04:32.067Z,8.19
2022-12-25T17:07:36.657Z,8.14
2022-12-25T17:10:39.455Z,8.18
2022-12-25T17:13:42.071Z,8.12
2022-12-25T17:16:44.679Z,8.04
2022-12-25T17:19:48.811Z,8.11
2022-12-25T17:22:51.448Z,8.11
2022-12-25T17:25:54.060Z,8.10
2022-12-25T17:28:57.319Z,8.10
2022-12-25T17:31:59.977Z,8.04
2022-12-25T17:35:04.132Z,8.08
2022-12-25T17:38:06.708Z,8.05
2022-12-25T17:41:12.433Z,8.10
2022-12-25T17:44:15.017Z,8.07
2022-12-25T17:47:17.588Z,8.08
2022-12-25T17:50:21.731Z,8.05
2022-12-25T17:53:24.341Z,8.09
2022-12-25T17:56:27.212Z,8.10
2022-12-25T17:59:29.888Z,8.12
2022-12-25T18:02:32.592Z,8.12
2022-12-25T18:05:37.796Z,8.10
2022-12-25T18:08:41.199Z,8.11
2022-12-25T18:11:44.388Z,8.08
2022-12-25T18:14:46.979Z,8.08
2022-12-25T18:17:49.550Z,8.10
2022-12-25T18:20:54.471Z,8.11
2022-12-25T18:23:57.200Z,8.11
2022-12-25T18:26:59.800Z,8.06
2022-12-25T18:30:02.407Z,8.12
2022-12-25T18:33:04.998Z,8.14
2022-12-25T18:36:09.554Z,8.15
2022-12-25T18:39:12.966Z,8.14
2022-12-25T18:42:35.138Z,8.08
2022-12-25T18:45:38.071Z,8.15
2022-12-25T18:48:41.303Z,8.17
2022-12-25T18:51:45.283Z,8.21
2022-12-25T18:54:47.852Z,8.21
2022-12-25T18:57:50.490Z,8.21
2022-12-25T19:00:53.223Z,8.07
2022-12-25T19:04:04.420Z,8.18
2022-12-25T19:07:09.320Z,8.06
2022-12-25T19:10:11.921Z,8.11
2022-12-25T19:13:14.513Z,8.19
2022-12-25T19:16:17.286Z,8.18
2022-12-25T19:19:19.986Z,8.18
2022-12-25T19:22:23.896Z,8.21
2022-12-25T19:25:27.662Z,8.23
2022-12-25T19:28:30.314Z,8.25
2022-12-25T19:31:32.953Z,8.21
2022-12-25T19:34:35.768Z,8.22
2022-12-25T19:37:39.704Z,8.26
2022-12-25T19:40:59.949Z,8.10
2022-12-25T19:44:03.186Z,8.20
2022-12-25T19:47:05.827Z,8.21
2022-12-25T19:50:09.212Z,8.19
2022-12-25T19:53:13.171Z,8.15
2022-12-25T19:56:16.380Z,7.92
2022-12-25T19:59:18.944Z,8.13
2022-12-25T20:02:21.657Z,8.22
2022-12-25T20:05:24.336Z,8.15
2022-12-25T20:08:28.454Z,8.21
2022-12-25T20:11:33.214Z,8.23
2022-12-25T20:14:35.813Z,8.18
2022-12-25T20:17:38.451Z,8.15
2022-12-25T20:20:41.193Z,8.21
2022-12-25T20:23:46.777Z,8.23
2022-12-25T20:26:53.749Z,8.26
2022-12-25T20:29:59.683Z,8.29
2022-12-25T20:33:02.640Z,8.29
2022-12-25T20:36:06.282Z,8.31
2022-12-25T20:39:12.091Z,8.31
2022-12-25T20:42:14.670Z,8.33
2022-12-25T20:45:17.386Z,8.32
2022-12-25T20:48:20.006Z,8.33
2022-12-25T20:51:24.096Z,8.36
2022-12-25T20:54:28.021Z,8.37
2022-12-25T20:57:30.630Z,8.34
2022-12-25T21:00:33.245Z,8.34
2022-12-25T21:03:36.306Z,8.34
2022-12-25T21:06:38.890Z,8.37
2022-12-25T21:09:43.137Z,8.35
2022-12-25T21:12:45.753Z,8.34
2022-12-25T21:15:49.579Z,8.34
2022-12-25T21:18:54.432Z,8.33
2022-12-25T21:21:57.012Z,8.33
2022-12-25T21:25:01.009Z,8.36
2022-12-25T21:28:03.617Z,8.33
2022-12-25T21:31:07.173Z,8.32
2022-12-25T21:34:08.791Z,8.32
2022-12-25T21:37:11.405Z,8.30
2022-12-25T21:40:16.611Z,8.33
2022-12-25T21:43:19.407Z,8.28
2022-12-25T21:46:22.525Z,8.31
2022-12-25T21:49:39.190Z,8.24
2022-12-25T21:52:41.989Z,8.22
2022-12-25T21:55:56.743Z,8.31
2022-12-25T21:59:00.380Z,8.35
2022-12-25T22:02:11.007Z,8.36
2022-12-25T22:05:34.070Z,8.34
2022-12-25T22:08:35.779Z,8.33
2022-12-25T22:11:57.337Z,8.36
2022-12-25T22:15:06.092Z,8.36
2022-12-25T22:18:27.169Z,8.35
2022-12-25T22:21:29.818Z,8.31
2022-12-25T22:24:32.397Z,8.26
2022-12-25T22:27:38.616Z,8.37
2022-12-25T22:30:44.394Z,8.42
2022-12-25T22:33:47.059Z,8.43
2022-12-25T22:36:50.165Z,8.41
2022-12-25T22:39:52.825Z,8.44
2022-12-25T22:42:57.521Z,8.40
2022-12-25T22:46:00.263Z,8.40
2022-12-25T22:49:02.899Z,8.42
2022-12-25T22:52:05.511Z,8.34
2022-12-25T22:55:09.820Z,8.39
2022-12-25T22:58:13.792Z,8.38
2022-12-25T23:01:17.021Z,8.33
2022-12-25T23:04:19.745Z,8.41
2022-12-25T23:07:22.348Z,8.46
2022-12-25T23:10:24.934Z,8.46
2022-12-25T23:13:46.325Z,8.46
2022-12-25T23:16:48.933Z,8.43
2022-12-25T23:20:09.110Z,8.45
2022-12-25T23:23:32.971Z,8.47
2022-12-25T23:26:35.578Z,8.41
2022-12-25T23:29:39.888Z,8.43
2022-12-25T23:32:43.559Z,8.38
2022-12-25T23:35:46.130Z,8.40
2022-12-25T23:38:49.781Z,8.37
2022-12-25T23:41:52.466Z,8.46
2022-12-25T23:44:56.432Z,8.43
2022-12-25T23:47:59.031Z,8.47
2022-12-25T23:51:04.152Z,8.49
2022-12-25T23:54:07.683Z,8.52
2022-12-25T23:57:10.294Z,8.46
